createdAt,value
2017-08-29T00:00:35.139Z,100616.95
2017-08-29T00:03:08.009Z,100609.89
2017-08-29T00:05:39.635Z,100609.77
2017-08-29T00:08:10.934Z,100606.04
2017-08-29T00:10:42.255Z,100606.27
2017-08-29T00:13:13.831Z,100607.09
2017-08-29T00:15:45.461Z,100611.78
2017-08-29T00:18:16.740Z,100608.48
2017-08-29T00:20:48.069Z,100602.77
2017-08-29T00:23:19.743Z,100611.19
2017-08-29T00:25:51.051Z,100614.26
2017-08-29T00:28:22.348Z,100609.81
2017-08-29T00:30:53.640Z,100595.16
2017-08-29T00:33:24.956Z,100591.44
2017-08-29T00:35:56.840Z,100588.92
2017-08-29T00:38:28.141Z,100591.95
2017-08-29T00:40:59.447Z,100590.12
2017-08-29T00:43:31.117Z,100591.67
2017-08-29T00:46:03.678Z,100590.92
2017-08-29T00:48:34.980Z,100582.80
2017-08-29T00:51:06.605Z,100571.67
2017-08-29T00:53:38.112Z,100578.11
2017-08-29T00:56:10.729Z,100573.58
2017-08-29T00:58:42.088Z,100576.03
2017-08-29T01:01:13.419Z,100575.94
2017-08-29T01:03:45.014Z,100573.92
2017-08-29T01:06:16.602Z,100570.82
2017-08-29T01:08:47.905Z,100565.52
2017-08-29T01:11:19.319Z,100573.55
2017-08-29T01:13:50.627Z,100570.45
2017-08-29T01:16:22.392Z,100572.25
2017-08-29T01:18:53.722Z,100569.40
2017-08-29T01:21:25.319Z,100564.67
2017-08-29T01:23:56.718Z,100571.88
2017-08-29T01:26:28.272Z,100566.56
2017-08-29T01:28:59.911Z,100566.34
2017-08-29T01:31:31.266Z,100567.86
2017-08-29T01:34:03.403Z,100571.03
2017-08-29T01:36:35.405Z,100566.58
2017-08-29T01:39:08.020Z,100562.47
2017-08-29T01:41:39.600Z,100559.24
2017-08-29T01:44:11.240Z,100562.69
2017-08-29T01:46:42.741Z,100561.32
2017-08-29T01:49:14.080Z,100557.22
2017-08-29T01:51:45.489Z,100548.52
2017-08-29T01:54:17.615Z,100552.20
2017-08-29T01:56:49.345Z,100547.75
2017-08-29T01:59:20.692Z,100549.26
2017-08-29T02:01:52.074Z,100544.83
2017-08-29T02:04:23.687Z,100537.99
2017-08-29T02:06:55.092Z,100543.45
2017-08-29T02:09:26.546Z,100535.03
2017-08-29T02:11:58.507Z,100536.22
2017-08-29T02:14:30.015Z,100543.62
2017-08-29T02:17:01.527Z,100537.00
2017-08-29T02:19:33.114Z,100532.78
2017-08-29T02:22:04.968Z,100525.41
2017-08-29T02:24:36.303Z,100532.83
2017-08-29T02:27:08.880Z,100526.02
2017-08-29T02:29:40.212Z,100518.92
2017-08-29T02:32:11.821Z,100528.63
2017-08-29T02:34:43.121Z,100527.63
2017-08-29T02:37:15.688Z,100530.62
2017-08-29T02:39:47.436Z,100531.64
2017-08-29T02:42:18.761Z,100534.11
2017-08-29T02:44:50.070Z,100532.03
2017-08-29T02:47:21.663Z,100525.45
2017-08-29T02:49:53.029Z,100527.75
2017-08-29T02:52:24.339Z,100531.49
2017-08-29T02:54:56.086Z,100531.06
2017-08-29T02:57:27.414Z,100533.86
2017-08-29T02:59:58.775Z,100536.25
2017-08-29T03:02:30.398Z,100536.44
2017-08-29T03:05:02.201Z,100533.45
2017-08-29T03:07:34.096Z,100535.55
2017-08-29T03:10:06.048Z,100526.61
2017-08-29T03:12:37.349Z,100520.27
2017-08-29T03:15:09.810Z,100520.48
2017-08-29T03:17:41.127Z,100525.51
2017-08-29T03:20:12.452Z,100512.58
2017-08-29T03:22:44.141Z,100508.69
2017-08-29T03:25:15.461Z,100511.84
2017-08-29T03:27:47.032Z,100502.13
2017-08-29T03:30:18.353Z,100509.02
2017-08-29T03:32:49.663Z,100507.78
2017-08-29T03:38:23.178Z,100512.00
2017-08-29T03:40:54.813Z,100508.17
2017-08-29T03:43:26.106Z,100512.42
2017-08-29T03:45:57.673Z,100514.24
2017-08-29T03:48:28.998Z,100510.70
2017-08-29T03:51:00.459Z,100508.56
2017-08-29T03:53:32.127Z,100512.78
2017-08-29T03:56:05.812Z,100510.96
2017-08-29T03:58:37.152Z,100502.14
2017-08-29T04:01:09.840Z,100497.77
2017-08-29T04:03:41.169Z,100501.22
2017-08-29T04:06:12.868Z,100502.33
2017-08-29T04:08:44.582Z,100512.38
2017-08-29T04:11:15.909Z,100506.89
2017-08-29T04:13:47.596Z,100513.66
2017-08-29T04:16:18.926Z,100516.95
2017-08-29T04:18:50.503Z,100513.09
2017-08-29T04:21:21.831Z,100514.64
2017-08-29T04:23:53.150Z,100513.36
2017-08-29T04:26:24.788Z,100516.61
2017-08-29T04:28:56.130Z,100518.78
2017-08-29T04:31:27.441Z,100523.14
2017-08-29T04:33:59.087Z,100525.64
2017-08-29T04:36:30.410Z,100526.63
2017-08-29T04:39:02.714Z,100522.30
2017-08-29T04:41:34.012Z,100517.52
2017-08-29T04:44:06.381Z,100519.18
2017-08-29T04:46:38.219Z,100519.61
2017-08-29T04:49:09.594Z,100527.41
2017-08-29T04:51:41.131Z,100521.44
2017-08-29T04:54:12.744Z,100520.47
2017-08-29T04:56:44.185Z,100517.92
2017-08-29T04:59:15.790Z,100525.73
2017-08-29T05:01:47.163Z,100526.58
2017-08-29T05:04:18.548Z,100523.70
2017-08-29T05:06:50.309Z,100528.89
2017-08-29T05:09:22.030Z,100524.95
2017-08-29T05:11:53.364Z,100526.98
2017-08-29T05:14:25.012Z,100528.39
2017-08-29T05:16:56.353Z,100536.89
2017-08-29T05:19:27.964Z,100532.25
2017-08-29T05:21:59.301Z,100530.72
2017-08-29T05:24:30.662Z,100532.30
2017-08-29T05:27:02.472Z,100533.94
2017-08-29T05:29:33.808Z,100533.91
2017-08-29T05:32:07.512Z,100531.62
2017-08-29T05:34:39.239Z,100538.34
2017-08-29T05:37:10.803Z,100540.17
2017-08-29T05:39:42.442Z,100535.27
2017-08-29T05:42:13.826Z,100544.33
2017-08-29T05:44:45.142Z,100545.60
2017-08-29T05:47:16.817Z,100547.89
2017-08-29T05:49:48.177Z,100550.76
2017-08-29T05:52:19.483Z,100549.14
2017-08-29T05:54:51.091Z,100556.63
2017-08-29T05:57:22.427Z,100556.13
2017-08-29T05:59:53.729Z,100550.98
2017-08-29T06:02:25.023Z,100553.47
2017-08-29T06:04:56.321Z,100553.05
2017-08-29T06:07:27.949Z,100554.42
2017-08-29T06:09:59.559Z,100553.25
2017-08-29T06:12:30.838Z,100551.16
2017-08-29T06:15:02.993Z,100551.80
2017-08-29T06:17:35.199Z,100544.75
2017-08-29T06:20:08.782Z,100550.17
2017-08-29T06:22:40.137Z,100548.73
2017-08-29T06:25:11.459Z,100548.91
2017-08-29T06:27:43.077Z,100546.55
2017-08-29T06:30:14.443Z,100549.57
2017-08-29T06:32:45.796Z,100547.34
2017-08-29T06:35:17.440Z,100543.08
2017-08-29T06:37:49.709Z,100542.17
2017-08-29T06:40:21.324Z,100544.95
2017-08-29T06:42:52.663Z,100544.05
2017-08-29T06:45:24.024Z,100537.95
2017-08-29T06:47:55.635Z,100537.28
2017-08-29T06:50:27.034Z,100531.84
2017-08-29T06:52:58.365Z,100535.87
2017-08-29T06:55:29.972Z,100537.89
2017-08-29T06:58:01.683Z,100541.70
2017-08-29T07:00:33.226Z,100540.88
2017-08-29T07:03:05.112Z,100541.20
2017-08-29T07:05:36.584Z,100540.61
2017-08-29T07:08:09.350Z,100541.70
2017-08-29T07:10:41.181Z,100543.97
2017-08-29T07:13:12.589Z,100538.66
2017-08-29T07:15:44.316Z,100543.82
2017-08-29T07:18:15.672Z,100540.45
2017-08-29T07:20:47.001Z,100545.22
2017-08-29T07:23:18.318Z,100542.54
2017-08-29T07:25:49.946Z,100546.06
2017-08-29T07:28:21.351Z,100541.17
2017-08-29T07:30:52.671Z,100545.03
2017-08-29T07:33:24.024Z,100545.94
2017-08-29T07:35:55.416Z,100543.58
2017-08-29T07:38:27.322Z,100544.06
2017-08-29T07:40:59.044Z,100549.12
2017-08-29T07:43:30.940Z,100549.20
2017-08-29T07:46:03.397Z,100545.95
2017-08-29T07:48:35.075Z,100546.03
2017-08-29T07:51:08.042Z,100547.88
2017-08-29T07:53:39.504Z,100553.59
2017-08-29T07:58:45.604Z,100552.11
2017-08-29T08:03:45.314Z,100534.46
2017-08-29T08:06:16.653Z,100543.39
2017-08-29T08:08:48.086Z,100539.52
2017-08-29T08:11:19.916Z,100538.16
2017-08-29T08:13:51.399Z,100537.88
2017-08-29T08:16:23.435Z,100535.81
2017-08-29T08:18:54.939Z,100535.97
2017-08-29T08:21:26.297Z,100531.22
2017-08-29T08:23:57.924Z,100524.38
2017-08-29T08:26:29.670Z,100525.95
2017-08-29T08:29:01.185Z,100525.30
2017-08-29T08:31:32.926Z,100523.45
2017-08-29T08:34:07.636Z,100525.80
2017-08-29T08:36:39.429Z,100527.61
2017-08-29T08:39:10.985Z,100522.98
2017-08-29T08:41:42.664Z,100526.67
2017-08-29T08:44:14.280Z,100515.16
2017-08-29T08:46:45.596Z,100516.96
2017-08-29T08:49:17.192Z,100513.41
2017-08-29T08:51:48.519Z,100512.34
2017-08-29T08:54:19.856Z,100513.56
2017-08-29T08:56:51.564Z,100518.05
2017-08-29T08:59:22.987Z,100518.73
2017-08-29T09:01:54.344Z,100524.14
2017-08-29T09:04:25.987Z,100523.56
2017-08-29T09:06:57.291Z,100521.27
2017-08-29T09:09:28.855Z,100520.77
2017-08-29T09:12:00.442Z,100521.42
2017-08-29T09:14:31.768Z,100523.28
2017-08-29T09:17:03.893Z,100516.92
2017-08-29T09:19:35.265Z,100516.64
2017-08-29T09:22:08.063Z,100512.63
2017-08-29T09:24:39.652Z,100508.49
2017-08-29T09:27:11.649Z,100508.66
2017-08-29T09:29:42.951Z,100502.66
2017-08-29T09:32:14.251Z,100501.50
2017-08-29T09:34:45.776Z,100502.20
2017-08-29T09:37:17.573Z,100502.23
2017-08-29T09:39:48.901Z,100496.88
2017-08-29T09:42:20.568Z,100498.09
2017-08-29T09:44:52.359Z,100497.73
2017-08-29T09:47:23.669Z,100492.41
2017-08-29T09:49:54.972Z,100496.20
2017-08-29T09:52:26.289Z,100484.48
2017-08-29T09:54:57.620Z,100488.49
2017-08-29T09:57:29.522Z,100484.73
2017-08-29T10:00:00.931Z,100477.34
2017-08-29T10:02:32.244Z,100474.16
2017-08-29T10:05:05.142Z,100469.47
2017-08-29T10:07:36.693Z,100467.47
2017-08-29T10:10:09.287Z,100460.00
2017-08-29T10:12:40.925Z,100459.07
2017-08-29T10:15:12.195Z,100455.98
2017-08-29T10:17:45.587Z,100450.23
2017-08-29T10:20:16.891Z,100449.59
2017-08-29T10:22:48.384Z,100457.97
2017-08-29T10:25:19.968Z,100454.09
2017-08-29T10:27:51.783Z,100449.64
2017-08-29T10:30:23.152Z,100448.84
2017-08-29T10:32:54.920Z,100446.52
2017-08-29T10:35:26.342Z,100439.73
2017-08-29T10:37:57.948Z,100432.58
2017-08-29T10:40:29.518Z,100439.81
2017-08-29T10:43:01.409Z,100433.55
2017-08-29T10:45:33.440Z,100436.03
2017-08-29T10:48:06.148Z,100432.25
2017-08-29T10:50:37.780Z,100433.16
2017-08-29T10:53:10.341Z,100433.95
2017-08-29T10:55:41.940Z,100425.70
2017-08-29T10:58:14.137Z,100425.22
2017-08-29T11:00:45.811Z,100419.70
2017-08-29T11:03:17.163Z,100420.15
2017-08-29T11:05:49.073Z,100410.91
2017-08-29T11:08:20.646Z,100417.44
2017-08-29T11:10:52.581Z,100414.61
2017-08-29T11:13:24.908Z,100405.17
2017-08-29T11:15:56.520Z,100401.27
2017-08-29T11:18:28.294Z,100404.34
2017-08-29T11:20:59.828Z,100394.66
2017-08-29T11:23:31.887Z,100395.17
2017-08-29T11:26:06.800Z,100385.89
2017-08-29T11:28:38.302Z,100391.88
2017-08-29T11:31:11.058Z,100393.35
2017-08-29T11:33:42.756Z,100381.98
2017-08-29T11:36:14.742Z,100381.78
2017-08-29T11:38:46.465Z,100377.69
2017-08-29T11:41:18.066Z,100380.19
2017-08-29T11:43:50.241Z,100373.80
2017-08-29T11:46:21.661Z,100373.45
2017-08-29T11:48:53.579Z,100376.41
2017-08-29T11:51:25.059Z,100372.45
2017-08-29T11:53:56.617Z,100355.03
2017-08-29T11:56:28.323Z,100363.15
2017-08-29T11:59:00.242Z,100362.81
2017-08-29T12:01:31.905Z,100357.20
2017-08-29T12:04:04.311Z,100356.45
2017-08-29T12:06:35.713Z,100360.14
2017-08-29T12:09:08.827Z,100352.31
2017-08-29T12:11:40.376Z,100353.45
2017-08-29T12:14:12.197Z,100343.94
2017-08-29T12:16:43.987Z,100344.35
2017-08-29T12:19:15.574Z,100346.64
2017-08-29T12:21:47.143Z,100343.78
2017-08-29T12:24:18.687Z,100339.29
2017-08-29T12:26:50.303Z,100338.25
2017-08-29T12:29:22.130Z,100329.00
2017-08-29T12:31:53.649Z,100327.73
2017-08-29T12:34:25.556Z,100318.53
2017-08-29T12:36:57.367Z,100317.34
2017-08-29T12:54:28.500Z,100272.98
2017-08-29T14:32:22.897Z,100178.13
2017-08-29T14:34:57.770Z,100172.67
